Back to Top

Language: 

My Weather Underground Personal Weather Station Historical Data with Graphs...

Delerius Weather Station Historical Data
Daily Summary for August 22, 2017 Units:  Metric    English   Both
« Previous Day
Next Day »
Daily Weekly Monthly Yearly Custom
  High: Low: Average:
Temperature: 21.7 °C 15.6 °C 18.6 °C
Dew Point: 18.2 °C 14.8 °C 16.6 °C
Humidity: 97 % 78 % 89 %
Wind Speed: 14.5 km/h 0 km/h 5.3 km/h
Wind Gust: 24.1 km/h - -
Wind:- - SE
Pressure: 1019.5 hPa 1014.1 hPa -
Precipitation: 0.25 mm    
Historical Graphs
 
 
Tabular Data for August 22, 2017
Time Temperature Dew Point Pressure Wind Wind Speed Wind Gust Humidity Rainfall Rate (Hourly) solar Conditions
00:04 16.4 °C 15.4 °C 1019.5 hPa Calm     94 % 0 mm 0 W/m2
00:09 16.3 °C 15.3 °C 1019.5 hPa Calm     94 % 0 mm 0 W/m2
00:14 16.3 °C 15.3 °C 1019.5 hPa Calm     94 % 0 mm 0 W/m2
00:19 16.3 °C 15.3 °C 1019.5 hPa Calm     94 % 0 mm 0 W/m2
00:24 16.3 °C 15.3 °C 1019.5 hPa Calm     94 % 0 mm 0 W/m2
00:29 16.4 °C 15.4 °C 1019.5 hPa Calm     94 % 0.25 mm 0 W/m2
00:34 16.4 °C 15.4 °C 1019.5 hPa Calm   1.6 km/h 94 % 0.25 mm 0 W/m2
00:39 16.4 °C 15.6 °C 1019.5 hPa Calm   3.2 km/h 95 % 0.25 mm 0 W/m2
00:44 16.4 °C 15.6 °C 1019.5 hPa Calm   3.2 km/h 95 % 0.25 mm 0 W/m2
00:49 16.4 °C 15.6 °C 1019.5 hPa Calm   3.2 km/h 95 % 0.25 mm 0 W/m2
00:54 16.3 °C 15.5 °C 1019.5 hPa Calm   3.2 km/h 95 % 0.25 mm 0 W/m2
00:59 16.3 °C 15.5 °C 1019.5 hPa Calm   3.2 km/h 95 % 0.25 mm 0 W/m2
01:00 16.3 °C 15.5 °C 1019.5 hPa Calm   3.2 km/h 95 % 0.25 mm 0 W/m2
01:05 16.3 °C 15.5 °C 1019.5 hPa Calm   1.6 km/h 95 % 0.25 mm 0 W/m2
01:10 16.3 °C 15.5 °C 1019.5 hPa Calm   1.6 km/h 95 % 0.25 mm 0 W/m2
01:15 16.3 °C 15.5 °C 1019.5 hPa Calm   1.6 km/h 95 % 0.25 mm 0 W/m2
01:20 16.3 °C 15.5 °C 1019.5 hPa Calm   1.6 km/h 95 % 0.25 mm 0 W/m2
01:25 16.3 °C 15.5 °C 1019.5 hPa Calm   3.2 km/h 95 % 0 mm 0 W/m2
01:30 16.3 °C 15.5 °C 1019.5 hPa Calm   3.2 km/h 95 % 0 mm 0 W/m2
01:35 16.3 °C 15.5 °C 1019.5 hPa Calm   6.4 km/h 95 % 0 mm 0 W/m2
01:40 16.3 °C 15.5 °C 1019.5 hPa Calm   6.4 km/h 95 % 0 mm 0 W/m2
01:45 16.3 °C 15.5 °C 1019.5 hPa Calm     95 % 0 mm 0 W/m2
01:50 16.3 °C 15.5 °C 1019.5 hPa Calm     95 % 0 mm 0 W/m2
01:55 16.3 °C 15.5 °C 1019.5 hPa Calm     95 % 0 mm 0 W/m2
02:00 16.3 °C 15.5 °C 1019.5 hPa Calm     95 % 0 mm 0 W/m2
02:05 16.2 °C 15.4 °C 1019.5 hPa Calm     95 % 0 mm 0 W/m2
02:10 16.2 °C 15.4 °C 1019.5 hPa Calm     95 % 0 mm 0 W/m2
02:15 16.2 °C 15.4 °C 1019.5 hPa Calm     95 % 0 mm 0 W/m2
02:20 16.1 °C 15.3 °C 1019.5 hPa Calm     95 % 0 mm 0 W/m2
02:25 16.1 °C 15.3 °C 1019.5 hPa Calm     95 % 0 mm 0 W/m2
02:30 16.1 °C 15.3 °C 1019.5 hPa Calm     95 % 0 mm 0 W/m2
02:35 16 °C 15.2 °C 1019.5 hPa Calm     95 % 0 mm 0 W/m2
02:40 16 °C 15.2 °C 1019.5 hPa Calm     95 % 0 mm 0 W/m2
02:45 16 °C 15.4 °C 1019.5 hPa Calm   1.6 km/h 96 % 0 mm 0 W/m2
02:51 16 °C 15.4 °C 1019.5 hPa Calm   3.2 km/h 96 % 0 mm 0 W/m2
02:56 15.9 °C 15.3 °C 1019.2 hPa Calm   3.2 km/h 96 % 0 mm 0 W/m2
03:01 15.9 °C 15.1 °C 1019.2 hPa Calm   1.6 km/h 95 % 0 mm 0 W/m2
03:06 15.8 °C 15 °C 1019.2 hPa Calm     95 % 0 mm 0 W/m2
03:11 15.8 °C 15 °C 1019.2 hPa Calm     95 % 0 mm 0 W/m2
03:16 15.7 °C 14.9 °C 1019.2 hPa Calm     95 % 0 mm 0 W/m2
03:21 15.6 °C 14.8 °C 1019.2 hPa Calm     95 % 0 mm 0 W/m2
03:26 15.6 °C 14.8 °C 1019.2 hPa Calm     95 % 0 mm 0 W/m2
03:31 15.6 °C 14.9 °C 1019.2 hPa Calm     96 % 0 mm 0 W/m2
03:36 15.6 °C 14.9 °C 1019.2 hPa Calm     96 % 0 mm 0 W/m2
03:41 15.6 °C 14.9 °C 1019.2 hPa Calm     96 % 0 mm 0 W/m2
03:46 15.6 °C 14.9 °C 1019.2 hPa Calm     96 % 0 mm 0 W/m2
03:51 15.6 °C 14.9 °C 1019.2 hPa Calm   1.6 km/h 96 % 0 mm 0 W/m2
03:56 15.6 °C 14.9 °C 1019.2 hPa Calm   1.6 km/h 96 % 0 mm 0 W/m2
04:01 15.7 °C 15.1 °C 1018.8 hPa Calm     96 % 0 mm 0 W/m2
04:06 15.7 °C 15.1 °C 1018.8 hPa Calm     96 % 0 mm 0 W/m2
04:11 15.7 °C 15.1 °C 1018.8 hPa Calm     96 % 0 mm 0 W/m2
04:17 15.7 °C 15.1 °C 1018.8 hPa Calm     96 % 0 mm 0 W/m2
04:22 15.7 °C 15.1 °C 1018.8 hPa Calm     96 % 0 mm 0 W/m2
04:23 15.7 °C 15.1 °C 1018.8 hPa Calm     96 % 0 mm 0 W/m2
04:24 15.7 °C 15.1 °C 1018.8 hPa Calm     96 % 0 mm 0 W/m2
04:28 15.7 °C 15.1 °C 1018.8 hPa Calm     96 % 0 mm 0 W/m2
04:33 15.6 °C 14.9 °C 1018.8 hPa Calm     96 % 0 mm 0 W/m2
04:38 15.7 °C 15.1 °C 1018.8 hPa Calm     96 % 0 mm 0 W/m2
04:43 15.7 °C 15.1 °C 1018.8 hPa Calm     96 % 0 mm 0 W/m2
04:48 15.7 °C 15.1 °C 1018.8 hPa Calm     96 % 0 mm 0 W/m2
04:53 15.7 °C 15.1 °C 1018.8 hPa Calm     96 % 0 mm 0 W/m2
04:58 15.7 °C 15.1 °C 1018.8 hPa Calm     96 % 0 mm 0 W/m2
05:03 15.7 °C 15.1 °C 1018.8 hPa Calm     96 % 0 mm 0 W/m2
05:08 15.7 °C 15.1 °C 1018.8 hPa Calm     96 % 0 mm 0 W/m2
05:13 15.6 °C 14.9 °C 1019.2 hPa Calm     96 % 0 mm 0 W/m2
05:18 15.6 °C 14.9 °C 1019.2 hPa Calm     96 % 0 mm 0 W/m2
05:23 15.6 °C 14.9 °C 1018.8 hPa Calm     96 % 0 mm 0 W/m2
05:28 15.6 °C 14.9 °C 1018.8 hPa Calm     96 % 0 mm 0 W/m2
05:33 15.6 °C 15.1 °C 1019.2 hPa Calm     97 % 0 mm 0 W/m2
05:38 15.7 °C 15.2 °C 1018.8 hPa Calm     97 % 0 mm 0 W/m2
05:43 15.7 °C 15.2 °C 1018.8 hPa Calm     97 % 0 mm 0 W/m2
05:48 15.7 °C 15.2 °C 1018.8 hPa Calm     97 % 0 mm 0 W/m2
05:53 15.7 °C 15.2 °C 1018.8 hPa Calm     97 % 0 mm 0 W/m2
05:58 15.7 °C 15.2 °C 1018.8 hPa Calm     97 % 0 mm 0 W/m2
06:03 15.7 °C 15.2 °C 1018.8 hPa Calm     97 % 0 mm 0 W/m2
06:08 15.7 °C 15.1 °C 1018.8 hPa Calm     96 % 0 mm 0 W/m2
06:13 15.7 °C 15.1 °C 1018.8 hPa Calm     96 % 0 mm 0 W/m2
06:18 15.7 °C 15.1 °C 1018.8 hPa Calm     96 % 0 mm 0 W/m2
06:23 15.6 °C 15.1 °C 1019.2 hPa Calm     97 % 0 mm 0 W/m2
06:28 15.6 °C 15.1 °C 1018.8 hPa Calm     97 % 0 mm 5 W/m2
06:33 15.6 °C 15.1 °C 1019.2 hPa Calm     97 % 0 mm 7 W/m2
06:38 15.6 °C 15.1 °C 1019.2 hPa Calm     97 % 0 mm 9 W/m2
06:43 15.7 °C 15.2 °C 1019.2 hPa Calm     97 % 0 mm 11 W/m2
06:48 15.7 °C 15.2 °C 1019.2 hPa Calm     97 % 0 mm 12 W/m2
06:53 15.7 °C 15.2 °C 1019.2 hPa Calm     97 % 0 mm 14 W/m2
06:58 15.7 °C 15.2 °C 1019.2 hPa Calm     97 % 0 mm 16 W/m2
07:03 15.7 °C 15.2 °C 1019.2 hPa Calm     97 % 0 mm 18 W/m2
07:08 15.7 °C 15.2 °C 1019.2 hPa Calm     97 % 0 mm 19 W/m2
07:14 15.7 °C 15.2 °C 1019.2 hPa Calm     97 % 0 mm 23 W/m2
07:19 15.8 °C 15.3 °C 1019.2 hPa Calm   1.6 km/h 97 % 0 mm 25 W/m2
07:24 15.9 °C 15.4 °C 1019.2 hPa Calm   1.6 km/h 97 % 0 mm 26 W/m2
07:29 15.9 °C 15.4 °C 1019.2 hPa Calm     97 % 0 mm 28 W/m2
07:34 16 °C 15.5 °C 1019.2 hPa Calm     97 % 0 mm 30 W/m2
07:39 16.1 °C 15.6 °C 1019.2 hPa Calm     97 % 0 mm 35 W/m2
07:44 16.1 °C 15.6 °C 1019.2 hPa Calm     97 % 0 mm 40 W/m2
07:49 16.1 °C 15.6 °C 1019.2 hPa Calm     97 % 0 mm 42 W/m2
07:54 16.2 °C 15.7 °C 1019.2 hPa Calm     97 % 0 mm 42 W/m2
07:59 16.2 °C 15.7 °C 1019.2 hPa Calm     97 % 0 mm 40 W/m2
08:04 16.3 °C 15.8 °C 1019.2 hPa Calm     97 % 0 mm 47 W/m2
08:09 16.3 °C 15.8 °C 1019.2 hPa Calm     97 % 0 mm 56 W/m2
08:14 16.4 °C 15.9 °C 1019.2 hPa Calm     97 % 0 mm 76 W/m2
08:19 16.4 °C 15.9 °C 1019.2 hPa Calm     97 % 0 mm 90 W/m2
08:24 16.5 °C 16 °C 1019.2 hPa Calm     97 % 0 mm 97 W/m2
08:29 16.6 °C 16.1 °C 1019.2 hPa Calm     97 % 0 mm 107 W/m2
08:34 16.7 °C 16.2 °C 1019.2 hPa Calm   3.2 km/h 97 % 0 mm 111 W/m2
08:39 16.8 °C 16.3 °C 1019.2 hPa Calm   3.2 km/h 97 % 0 mm 111 W/m2
08:44 16.9 °C 16.4 °C 1019.2 hPa Calm     97 % 0 mm 113 W/m2
08:49 17 °C 16.5 °C 1019.2 hPa Calm     97 % 0 mm 113 W/m2
08:54 17.1 °C 16.6 °C 1019.2 hPa Calm     97 % 0 mm 123 W/m2
08:59 17.2 °C 16.7 °C 1019.2 hPa Calm     97 % 0 mm 141 W/m2
09:04 17.2 °C 16.7 °C 1019.2 hPa Calm     97 % 0 mm 151 W/m2
09:09 17.3 °C 16.8 °C 1019.2 hPa Calm   1.6 km/h 97 % 0 mm 144 W/m2
09:14 17.4 °C 16.9 °C 1019.2 hPa Calm   1.6 km/h 97 % 0 mm 146 W/m2
09:19 17.5 °C 17 °C 1019.2 hPa Calm   4.8 km/h 97 % 0 mm 174 W/m2
09:24 17.6 °C 16.9 °C 1019.2 hPa Calm   4.8 km/h 96 % 0 mm 172 W/m2
09:29 17.7 °C 17.1 °C 1019.2 hPa Calm   3.2 km/h 96 % 0 mm 151 W/m2
09:30 17.7 °C 17.1 °C 1019.2 hPa Calm   3.2 km/h 96 % 0 mm 155 W/m2
09:35 17.8 °C 17.2 °C 1019.2 hPa Calm   3.2 km/h 96 % 0 mm 179 W/m2
09:40 17.9 °C 17.3 °C 1019.2 hPa East 1.6 km/h 6.4 km/h 96 % 0 mm 204 W/m2
09:45 18 °C 17.3 °C 1019.2 hPa East 1.6 km/h 6.4 km/h 96 % 0 mm 192 W/m2
09:50 18.1 °C 17.3 °C 1019.2 hPa East 1.6 km/h 6.4 km/h 95 % 0 mm 185 W/m2
09:55 18.2 °C 17.4 °C 1019.2 hPa East 1.6 km/h 8 km/h 95 % 0 mm 183 W/m2
10:00 18.3 °C 17.5 °C 1019.2 hPa SE 3.2 km/h 11.3 km/h 95 % 0 mm 174 W/m2
10:05 18.4 °C 17.4 °C 1019.2 hPa SE 3.2 km/h 11.3 km/h 94 % 0 mm 190 W/m2
10:10 18.5 °C 17.5 °C 1019.2 hPa SE 3.2 km/h 9.7 km/h 94 % 0 mm 183 W/m2
10:15 18.6 °C 17.6 °C 1019.2 hPa SE 4.8 km/h 9.7 km/h 94 % 0 mm 169 W/m2
10:20 18.7 °C 17.6 °C 1019.2 hPa SE 6.4 km/h 12.9 km/h 93 % 0 mm 220 W/m2
10:25 18.8 °C 17.5 °C 1019.2 hPa SE 8 km/h 12.9 km/h 92 % 0 mm 272 W/m2
10:31 18.9 °C 17.6 °C 1019.2 hPa SE 8 km/h 12.9 km/h 92 % 0 mm 230 W/m2
10:32 18.9 °C 17.6 °C 1019.2 hPa SE 8 km/h 12.9 km/h 92 % 0 mm 237 W/m2
10:37 19.1 °C 17.6 °C 1019.2 hPa SE 4.8 km/h 12.9 km/h 91 % 0 mm 232 W/m2
10:42 19.2 °C 17.7 °C 1019.2 hPa SSE 3.2 km/h 9.7 km/h 91 % 0 mm 290 W/m2
10:47 19.3 °C 17.6 °C 1018.8 hPa SE 6.4 km/h 12.9 km/h 90 % 0 mm 200 W/m2
10:52 19.4 °C 17.7 °C 1018.8 hPa SE 8 km/h 14.5 km/h 90 % 0 mm 193 W/m2
10:57 19.4 °C 17.6 °C 1018.8 hPa SSE 8 km/h 14.5 km/h 89 % 0 mm 234 W/m2
11:02 19.5 °C 17.6 °C 1018.8 hPa SSE 6.4 km/h 11.3 km/h 89 % 0 mm 246 W/m2
11:07 19.6 °C 17.7 °C 1018.8 hPa SSE 6.4 km/h 12.9 km/h 89 % 0 mm 232 W/m2
11:12 19.7 °C 17.7 °C 1018.8 hPa SSE 9.7 km/h 17.7 km/h 88 % 0 mm 288 W/m2
11:17 19.8 °C 17.6 °C 1018.8 hPa SE 11.3 km/h 19.3 km/h 87 % 0 mm 438 W/m2
11:22 20 °C 17.8 °C 1018.8 hPa SSE 12.9 km/h 19.3 km/h 87 % 0 mm 533 W/m2
11:27 20.2 °C 17.8 °C 1018.8 hPa SE 12.9 km/h 19.3 km/h 86 % 0 mm 438 W/m2
11:32 20.3 °C 17.7 °C 1018.8 hPa SE 12.9 km/h 20.9 km/h 85 % 0 mm 563 W/m2
11:37 20.4 °C 17.8 °C 1018.8 hPa SE 11.3 km/h 20.9 km/h 85 % 0 mm 257 W/m2
11:42 20.4 °C 17.8 °C 1018.8 hPa SE 11.3 km/h 20.9 km/h 85 % 0 mm 287 W/m2
11:47 20.4 °C 17.8 °C 1018.8 hPa SE 12.9 km/h 20.9 km/h 85 % 0 mm 346 W/m2
11:52 20.4 °C 17.8 °C 1018.8 hPa SE 11.3 km/h 19.3 km/h 85 % 0 mm 264 W/m2
11:57 20.4 °C 17.8 °C 1018.8 hPa SE 11.3 km/h 19.3 km/h 85 % 0 mm 329 W/m2
12:02 20.4 °C 17.8 °C 1018.8 hPa SE 11.3 km/h 16.1 km/h 85 % 0 mm 290 W/m2
12:07 20.5 °C 17.9 °C 1018.5 hPa SE 11.3 km/h 17.7 km/h 85 % 0 mm 378 W/m2
12:12 20.6 °C 18 °C 1018.5 hPa SE 9.7 km/h 17.7 km/h 85 % 0 mm 269 W/m2
12:17 20.8 °C 18.2 °C 1018.5 hPa SE 8 km/h 12.9 km/h 85 % 0 mm 239 W/m2
12:22 20.9 °C 17.9 °C 1018.5 hPa SE 8 km/h 17.7 km/h 83 % 0 mm 271 W/m2
12:27 20.8 °C 17.8 °C 1018.5 hPa SE 9.7 km/h 17.7 km/h 83 % 0 mm 192 W/m2
12:32 20.7 °C 17.7 °C 1018.5 hPa SSE 9.7 km/h 17.7 km/h 83 % 0 mm 172 W/m2
12:37 20.7 °C 17.7 °C 1018.5 hPa SSE 9.7 km/h 16.1 km/h 83 % 0 mm 206 W/m2
12:42 20.6 °C 17.6 °C 1018.5 hPa SSE 9.7 km/h 16.1 km/h 83 % 0 mm 315 W/m2
12:47 20.7 °C 17.9 °C 1018.5 hPa SSE 9.7 km/h 16.1 km/h 84 % 0 mm 276 W/m2
12:52 20.8 °C 18 °C 1018.2 hPa SSE 8 km/h 16.1 km/h 84 % 0 mm 350 W/m2
12:57 21 °C 18 °C 1018.2 hPa SE 9.7 km/h 17.7 km/h 83 % 0 mm 318 W/m2
13:02 21.1 °C 17.9 °C 1018.2 hPa SE 11.3 km/h 17.7 km/h 82 % 0 mm 413 W/m2
13:07 21.2 °C 17.8 °C 1018.2 hPa SSE 9.7 km/h 19.3 km/h 81 % 0 mm 148 W/m2
13:12 21.1 °C 17.7 °C 1018.2 hPa SSE 9.7 km/h 19.3 km/h 81 % 0 mm 163 W/m2
13:17 21.1 °C 17.7 °C 1018.2 hPa SSE 8 km/h 16.1 km/h 81 % 0 mm 243 W/m2
13:22 21.1 °C 17.9 °C 1018.2 hPa South 9.7 km/h 16.1 km/h 82 % 0 mm 171 W/m2
13:27 21.1 °C 17.9 °C 1018.2 hPa South 9.7 km/h 17.7 km/h 82 % 0 mm 230 W/m2
13:32 21.1 °C 17.9 °C 1017.8 hPa South 8 km/h 17.7 km/h 82 % 0 mm 287 W/m2
13:37 21.2 °C 18 °C 1017.8 hPa South 8 km/h 14.5 km/h 82 % 0 mm 374 W/m2
13:43 21.4 °C 18 °C 1017.8 hPa SSE 9.7 km/h 16.1 km/h 81 % 0 mm 265 W/m2
13:48 21.4 °C 17.8 °C 1017.8 hPa South 11.3 km/h 22.5 km/h 80 % 0 mm 327 W/m2
13:53 21.4 °C 17.8 °C 1017.8 hPa SSE 12.9 km/h 22.5 km/h 80 % 0 mm 469 W/m2
13:58 21.6 °C 18.2 °C 1017.8 hPa SSE 12.9 km/h 19.3 km/h 81 % 0 mm 269 W/m2
14:03 21.6 °C 18 °C 1017.8 hPa SSE 11.3 km/h 16.1 km/h 80 % 0 mm 197 W/m2
14:08 21.6 °C 18 °C 1017.8 hPa SSE 9.7 km/h 16.1 km/h 80 % 0 mm 123 W/m2
14:13 21.4 °C 18 °C 1017.8 hPa SSE 8 km/h 14.5 km/h 81 % 0 mm 204 W/m2
14:18 21.4 °C 18 °C 1017.8 hPa SSE 8 km/h 16.1 km/h 81 % 0 mm 204 W/m2
14:23 21.3 °C 17.7 °C 1017.5 hPa SE 8 km/h 16.1 km/h 80 % 0 mm 244 W/m2
14:28 21.4 °C 17.8 °C 1017.5 hPa SSE 9.7 km/h 16.1 km/h 80 % 0 mm 188 W/m2
14:33 21.3 °C 17.7 °C 1017.5 hPa SSE 11.3 km/h 17.7 km/h 80 % 0 mm 186 W/m2
14:38 21.3 °C 17.7 °C 1017.5 hPa SSE 11.3 km/h 17.7 km/h 80 % 0 mm 211 W/m2
14:43 21.3 °C 17.7 °C 1017.5 hPa SSE 9.7 km/h 16.1 km/h 80 % 0 mm 207 W/m2
14:48 21.4 °C 18 °C 1017.5 hPa SSE 8 km/h 14.5 km/h 81 % 0 mm 229 W/m2
14:53 21.4 °C 17.8 °C 1017.2 hPa SSE 6.4 km/h 14.5 km/h 80 % 0 mm 385 W/m2
14:58 21.6 °C 17.8 °C 1017.2 hPa SSE 8 km/h 12.9 km/h 79 % 0 mm 306 W/m2
15:03 21.7 °C 17.7 °C 1017.2 hPa SSE 9.7 km/h 16.1 km/h 78 % 0 mm 162 W/m2
15:08 21.6 °C 17.6 °C 1017.2 hPa SSE 11.3 km/h 19.3 km/h 78 % 0 mm 125 W/m2
15:13 21.6 °C 17.6 °C 1017.2 hPa SE 12.9 km/h 19.3 km/h 78 % 0 mm 105 W/m2
15:18 21.5 °C 17.7 °C 1016.8 hPa SE 11.3 km/h 19.3 km/h 79 % 0 mm 188 W/m2
15:23 21.5 °C 17.9 °C 1016.8 hPa ESE 11.3 km/h 19.3 km/h 80 % 0 mm 186 W/m2
15:28 21.5 °C 17.7 °C 1016.8 hPa SE 11.3 km/h 24.1 km/h 79 % 0 mm 171 W/m2
15:33 21.5 °C 17.7 °C 1016.8 hPa SE 11.3 km/h 24.1 km/h 79 % 0 mm 174 W/m2
15:38 21.5 °C 17.9 °C 1016.8 hPa SE 9.7 km/h 19.3 km/h 80 % 0 mm 165 W/m2
15:43 21.5 °C 17.9 °C 1016.8 hPa SE 11.3 km/h 17.7 km/h 80 % 0 mm 227 W/m2
15:48 21.5 °C 17.9 °C 1016.5 hPa ESE 11.3 km/h 17.7 km/h 80 % 0 mm 221 W/m2
15:53 21.6 °C 18 °C 1016.5 hPa SE 11.3 km/h 19.3 km/h 80 % 0 mm 155 W/m2
15:58 21.5 °C 17.7 °C 1016.5 hPa SE 11.3 km/h 19.3 km/h 79 % 0 mm 121 W/m2
16:03 21.5 °C 17.9 °C 1016.5 hPa ESE 11.3 km/h 17.7 km/h 80 % 0 mm 188 W/m2
16:08 21.5 °C 17.9 °C 1016.5 hPa SE 11.3 km/h 19.3 km/h 80 % 0 mm 188 W/m2
16:13 21.5 °C 17.9 °C 1016.5 hPa SE 11.3 km/h 20.9 km/h 80 % 0 mm 151 W/m2
16:18 21.5 °C 17.9 °C 1016.5 hPa SE 12.9 km/h 22.5 km/h 80 % 0 mm 156 W/m2
16:23 21.3 °C 17.5 °C 1016.5 hPa SE 14.5 km/h 22.5 km/h 79 % 0 mm 142 W/m2
16:28 21.2 °C 17.6 °C 1016.5 hPa SE 14.5 km/h 22.5 km/h 80 % 0 mm 135 W/m2
16:33 21.1 °C 17.7 °C 1016.5 hPa SSE 14.5 km/h 20.9 km/h 81 % 0 mm 79 W/m2
16:38 21.1 °C 17.7 °C 1016.5 hPa SSE 12.9 km/h 19.3 km/h 81 % 0 mm 109 W/m2
16:43 21 °C 17.8 °C 1016.1 hPa SSE 12.9 km/h 20.9 km/h 82 % 0 mm 151 W/m2
16:48 20.9 °C 17.7 °C 1016.1 hPa SE 12.9 km/h 20.9 km/h 82 % 0 mm 77 W/m2
16:53 20.9 °C 17.7 °C 1016.1 hPa SE 11.3 km/h 17.7 km/h 82 % 0 mm 58 W/m2
16:58 20.9 °C 17.7 °C 1016.1 hPa SE 9.7 km/h 17.7 km/h 82 % 0 mm 76 W/m2
17:00 20.9 °C 17.9 °C 1016.1 hPa SE 8 km/h 16.1 km/h 83 % 0 mm 69 W/m2
17:05 20.9 °C 17.9 °C 1016.1 hPa SE 8 km/h 16.1 km/h 83 % 0 mm 95 W/m2
17:10 20.9 °C 17.9 °C 1016.1 hPa SE 9.7 km/h 16.1 km/h 83 % 0 mm 95 W/m2
17:15 20.8 °C 17.6 °C 1016.1 hPa SE 11.3 km/h 17.7 km/h 82 % 0 mm 95 W/m2
17:20 20.8 °C 17.6 °C 1016.1 hPa SE 11.3 km/h 17.7 km/h 82 % 0 mm 93 W/m2
17:25 20.9 °C 17.7 °C 1016.1 hPa SE 9.7 km/h 17.7 km/h 82 % 0 mm 70 W/m2
17:30 20.9 °C 17.7 °C 1016.1 hPa SE 9.7 km/h 16.1 km/h 82 % 0 mm 74 W/m2
17:35 20.9 °C 17.7 °C 1016.1 hPa SE 9.7 km/h 16.1 km/h 82 % 0 mm 63 W/m2
17:40 20.8 °C 17.6 °C 1016.1 hPa SE 9.7 km/h 16.1 km/h 82 % 0 mm 46 W/m2
17:45 20.8 °C 17.6 °C 1016.1 hPa SE 9.7 km/h 17.7 km/h 82 % 0 mm 42 W/m2
17:50 20.8 °C 17.8 °C 1016.1 hPa SE 6.4 km/h 17.7 km/h 83 % 0 mm 47 W/m2
17:55 20.9 °C 17.9 °C 1015.8 hPa SE 4.8 km/h 12.9 km/h 83 % 0 mm 53 W/m2
18:00 20.9 °C 17.9 °C 1015.8 hPa SE 6.4 km/h 12.9 km/h 83 % 0 mm 44 W/m2
18:05 20.8 °C 17.6 °C 1015.8 hPa SE 8 km/h 16.1 km/h 82 % 0 mm 47 W/m2
18:10 20.8 °C 17.6 °C 1015.8 hPa SE 9.7 km/h 16.1 km/h 82 % 0 mm 62 W/m2
18:15 20.8 °C 17.6 °C 1015.8 hPa SE 8 km/h 16.1 km/h 82 % 0 mm 63 W/m2
18:20 20.8 °C 17.6 °C 1015.8 hPa SE 6.4 km/h 14.5 km/h 82 % 0 mm 84 W/m2
18:25 20.9 °C 17.7 °C 1015.5 hPa SE 8 km/h 14.5 km/h 82 % 0 mm 109 W/m2
18:30 20.9 °C 17.7 °C 1015.5 hPa SE 8 km/h 12.9 km/h 82 % 0 mm 107 W/m2
18:35 20.9 °C 17.7 °C 1015.5 hPa SE 6.4 km/h 12.9 km/h 82 % 0 mm 120 W/m2
18:41 21 °C 17.8 °C 1015.5 hPa SE 6.4 km/h 12.9 km/h 82 % 0 mm 127 W/m2
18:45 21.1 °C 17.9 °C 1015.5 hPa SE 6.4 km/h 12.9 km/h 82 % 0 mm 97 W/m2
18:50 21.1 °C 17.9 °C 1015.5 hPa SE 6.4 km/h 12.9 km/h 82 % 0 mm 107 W/m2
18:55 21.1 °C 17.9 °C 1015.5 hPa SE 8 km/h 12.9 km/h 82 % 0 mm 88 W/m2
19:00 21.1 °C 17.9 °C 1015.5 hPa SE 6.4 km/h 12.9 km/h 82 % 0 mm 76 W/m2
19:06 21.1 °C 17.9 °C 1015.5 hPa ESE 4.8 km/h 12.9 km/h 82 % 0 mm 60 W/m2
19:11 21 °C 17.8 °C 1015.5 hPa ESE 6.4 km/h 11.3 km/h 82 % 0 mm 56 W/m2
19:16 21 °C 17.8 °C 1015.5 hPa SE 6.4 km/h 12.9 km/h 82 % 0 mm 62 W/m2
19:21 20.9 °C 17.7 °C 1015.5 hPa SE 6.4 km/h 12.9 km/h 82 % 0 mm 40 W/m2
19:26 20.9 °C 17.7 °C 1015.1 hPa ESE 8 km/h 12.9 km/h 82 % 0 mm 40 W/m2
19:31 20.8 °C 17.6 °C 1015.1 hPa ESE 6.4 km/h 12.9 km/h 82 % 0 mm 40 W/m2
19:36 20.8 °C 17.6 °C 1015.5 hPa ESE 6.4 km/h 12.9 km/h 82 % 0 mm 28 W/m2
19:41 20.8 °C 17.6 °C 1015.5 hPa ESE 8 km/h 16.1 km/h 82 % 0 mm 21 W/m2
19:46 20.7 °C 17.5 °C 1015.5 hPa SE 8 km/h 16.1 km/h 82 % 0 mm 12 W/m2
19:51 20.6 °C 17.4 °C 1015.5 hPa SE 8 km/h 12.9 km/h 82 % 0 mm 7 W/m2
19:56 20.6 °C 17.6 °C 1015.5 hPa ESE 6.4 km/h 11.3 km/h 83 % 0 mm 5 W/m2
20:01 20.5 °C 17.3 °C 1015.1 hPa ESE 6.4 km/h 14.5 km/h 82 % 0 mm 0 W/m2
20:06 20.4 °C 17.4 °C 1015.1 hPa ESE 8 km/h 17.7 km/h 83 % 0 mm 0 W/m2
20:11 20.4 °C 17.4 °C 1015.1 hPa ESE 9.7 km/h 17.7 km/h 83 % 0 mm 0 W/m2
20:16 20.3 °C 17.3 °C 1015.1 hPa ESE 8 km/h 14.5 km/h 83 % 0 mm 0 W/m2
20:21 20.2 °C 17.2 °C 1015.1 hPa ESE 8 km/h 14.5 km/h 83 % 0 mm 0 W/m2
20:26 20.2 °C 17.2 °C 1015.1 hPa ESE 8 km/h 16.1 km/h 83 % 0 mm 0 W/m2
20:31 20.1 °C 17.1 °C 1015.1 hPa ESE 9.7 km/h 19.3 km/h 83 % 0 mm 0 W/m2
20:36 20.1 °C 16.9 °C 1015.1 hPa SE 9.7 km/h 19.3 km/h 82 % 0 mm 0 W/m2
20:41 20 °C 16.8 °C 1015.1 hPa ESE 8 km/h 14.5 km/h 82 % 0 mm 0 W/m2
20:46 19.9 °C 16.7 °C 1015.1 hPa ESE 9.7 km/h 17.7 km/h 82 % 0 mm 0 W/m2
20:51 19.9 °C 16.7 °C 1015.1 hPa ESE 11.3 km/h 19.3 km/h 82 % 0 mm 0 W/m2
20:56 19.9 °C 16.7 °C 1015.1 hPa ESE 9.7 km/h 19.3 km/h 82 % 0 mm 0 W/m2
21:01 19.8 °C 16.8 °C 1015.1 hPa ESE 8 km/h 12.9 km/h 83 % 0 mm 0 W/m2
21:06 19.8 °C 16.8 °C 1015.1 hPa ESE 8 km/h 14.5 km/h 83 % 0 mm 0 W/m2
21:11 19.8 °C 16.8 °C 1015.1 hPa ESE 8 km/h 16.1 km/h 83 % 0 mm 0 W/m2
21:16 19.7 °C 16.7 °C 1015.1 hPa ESE 8 km/h 16.1 km/h 83 % 0 mm 0 W/m2
21:21 19.7 °C 16.7 °C 1015.1 hPa ESE 9.7 km/h 17.7 km/h 83 % 0 mm 0 W/m2
21:26 19.6 °C 16.6 °C 1015.1 hPa ESE 9.7 km/h 17.7 km/h 83 % 0 mm 0 W/m2
21:31 19.6 °C 16.6 °C 1015.1 hPa ESE 9.7 km/h 17.7 km/h 83 % 0 mm 0 W/m2
21:36 19.5 °C 16.6 °C 1015.1 hPa ESE 9.7 km/h 17.7 km/h 83 % 0 mm 0 W/m2
21:41 19.4 °C 16.6 °C 1015.1 hPa ESE 8 km/h 16.1 km/h 84 % 0 mm 0 W/m2
21:43 19.4 °C 16.6 °C 1015.1 hPa ESE 8 km/h 16.1 km/h 84 % 0 mm 0 W/m2
21:48 19.3 °C 16.5 °C 1015.1 hPa ESE 9.7 km/h 16.1 km/h 84 % 0 mm 0 W/m2
21:53 19.3 °C 16.5 °C 1015.1 hPa ESE 9.7 km/h 16.1 km/h 84 % 0 mm 0 W/m2
21:58 19.2 °C 16.4 °C 1015.1 hPa ESE 11.3 km/h 17.7 km/h 84 % 0 mm 0 W/m2
22:03 19.1 °C 16.5 °C 1015.1 hPa SE 12.9 km/h 22.5 km/h 85 % 0 mm 0 W/m2
22:08 19.1 °C 16.5 °C 1015.1 hPa SE 9.7 km/h 22.5 km/h 85 % 0 mm 0 W/m2
22:13 18.9 °C 16.3 °C 1014.8 hPa ESE 9.7 km/h 17.7 km/h 85 % 0 mm 0 W/m2
22:18 18.9 °C 16.3 °C 1014.8 hPa ESE 9.7 km/h 17.7 km/h 85 % 0 mm 0 W/m2
22:23 18.8 °C 16.2 °C 1014.8 hPa ESE 9.7 km/h 16.1 km/h 85 % 0 mm 0 W/m2
22:28 18.8 °C 16.4 °C 1014.8 hPa ESE 8 km/h 14.5 km/h 86 % 0 mm 0 W/m2
22:33 18.8 °C 16.4 °C 1014.8 hPa SE 6.4 km/h 14.5 km/h 86 % 0 mm 0 W/m2
22:38 18.7 °C 16.3 °C 1014.8 hPa ESE 6.4 km/h 14.5 km/h 86 % 0 mm 0 W/m2
22:43 18.7 °C 16.3 °C 1014.8 hPa ESE 6.4 km/h 12.9 km/h 86 % 0 mm 0 W/m2
22:48 18.6 °C 16.2 °C 1014.4 hPa ESE 8 km/h 14.5 km/h 86 % 0 mm 0 W/m2
22:53 18.6 °C 16.2 °C 1014.4 hPa ESE 9.7 km/h 16.1 km/h 86 % 0 mm 0 W/m2
22:58 18.5 °C 16.1 °C 1014.4 hPa ESE 9.7 km/h 16.1 km/h 86 % 0 mm 0 W/m2
23:03 18.5 °C 16.1 °C 1014.4 hPa ESE 9.7 km/h 17.7 km/h 86 % 0 mm 0 W/m2
23:08 18.4 °C 16.2 °C 1014.4 hPa ESE 9.7 km/h 17.7 km/h 87 % 0 mm 0 W/m2
23:13 18.4 °C 16.2 °C 1014.4 hPa ESE 9.7 km/h 16.1 km/h 87 % 0 mm 0 W/m2
23:18 18.3 °C 16.1 °C 1014.4 hPa SE 9.7 km/h 17.7 km/h 87 % 0 mm 0 W/m2
23:23 18.3 °C 16.3 °C 1014.4 hPa ESE 8 km/h 17.7 km/h 88 % 0 mm 0 W/m2
23:28 18.2 °C 16.2 °C 1014.4 hPa ESE 8 km/h 14.5 km/h 88 % 0 mm 0 W/m2
23:33 18.2 °C 16.3 °C 1014.4 hPa SE 6.4 km/h 11.3 km/h 89 % 0 mm 0 W/m2
23:38 18.1 °C 16.3 °C 1014.1 hPa SE 4.8 km/h 9.7 km/h 89 % 0 mm 0 W/m2
23:43 18.1 °C 16.3 °C 1014.1 hPa SE 4.8 km/h 9.7 km/h 89 % 0 mm 0 W/m2
23:48 18 °C 16.3 °C 1014.1 hPa SE 6.4 km/h 11.3 km/h 90 % 0 mm 0 W/m2
23:53 17.9 °C 16.2 °C 1014.1 hPa SE 6.4 km/h 11.3 km/h 90 % 0 mm 0 W/m2
23:58 17.8 °C 16.1 °C 1014.1 hPa SE 6.4 km/h 12.9 km/h 90 % 0 mm 0 W/m2
Delerius-Weather
Compliments of Weather Underground - 2.25 mb

Data updates at regular intervals.